sensor_id;sensor_type;location;lat;lon;timestamp;temperature;humidity
44359;DHT22;30077;52.474;13.326;2024-01-30T00:00:00;4.00;99.90
44359;DHT22;30077;52.474;13.326;2024-01-30T00:10:00;3.90;99.90
44359;DHT22;30077;52.474;13.326;2024-01-30T00:20:01;3.90;99.90
44359;DHT22;30077;52.474;13.326;2024-01-30T00:30:05;3.80;99.90
44359;DHT22;30077;52.474;13.326;2024-01-30T00:40:07;3.80;99.90
44359;DHT22;30077;52.474;13.326;2024-01-30T00:50:11;3.80;99.90
44359;DHT22;30077;52.474;13.326;2024-01-30T01:00:12;3.70;99.90
44359;DHT22;30077;52.474;13.326;2024-01-30T01:10:13;3.70;99.90
44359;DHT22;30077;52.474;13.326;2024-01-30T01:20:14;3.60;99.90
44359;DHT22;30077;52.474;13.326;2024-01-30T01:30:15;3.50;99.90
44359;DHT22;30077;52.474;13.326;2024-01-30T01:40:25;3.60;99.90
44359;DHT22;30077;52.474;13.326;2024-01-30T01:50:27;3.60;99.90
44359;DHT22;30077;52.474;13.326;2024-01-30T02:00:28;3.60;99.90
44359;DHT22;30077;52.474;13.326;2024-01-30T02:10:29;3.50;99.90
44359;DHT22;30077;52.474;13.326;2024-01-30T02:20:30;3.50;99.90
44359;DHT22;30077;52.474;13.326;2024-01-30T02:30:32;3.50;99.90
44359;DHT22;30077;52.474;13.326;2024-01-30T02:40:32;3.50;99.90
44359;DHT22;30077;52.474;13.326;2024-01-30T02:50:33;3.50;99.90
44359;DHT22;30077;52.474;13.326;2024-01-30T03:00:34;3.50;99.90
44359;DHT22;30077;52.474;13.326;2024-01-30T03:10:35;3.40;99.90
44359;DHT22;30077;52.474;13.326;2024-01-30T03:20:35;3.40;99.90
44359;DHT22;30077;52.474;13.326;2024-01-30T03:30:36;3.20;99.90
44359;DHT22;30077;52.474;13.326;2024-01-30T03:40:37;3.20;99.90
44359;DHT22;30077;52.474;13.326;2024-01-30T03:50:37;3.10;99.90
44359;DHT22;30077;52.474;13.326;2024-01-30T04:00:38;3.20;99.90
44359;DHT22;30077;52.474;13.326;2024-01-30T04:10:39;3.10;99.90
44359;DHT22;30077;52.474;13.326;2024-01-30T04:20:40;3.10;99.90
44359;DHT22;30077;52.474;13.326;2024-01-30T04:30:41;3.10;99.90
44359;DHT22;30077;52.474;13.326;2024-01-30T04:40:42;3.00;99.90
44359;DHT22;30077;52.474;13.326;2024-01-30T04:50:43;3.00;99.90
44359;DHT22;30077;52.474;13.326;2024-01-30T05:00:44;3.00;99.90
44359;DHT22;30077;52.474;13.326;2024-01-30T05:10:46;3.10;99.90
44359;DHT22;30077;52.474;13.326;2024-01-30T05:20:47;3.00;99.90
44359;DHT22;30077;52.474;13.326;2024-01-30T05:30:47;3.10;99.90
44359;DHT22;30077;52.474;13.326;2024-01-30T05:40:48;3.00;99.90
44359;DHT22;30077;52.474;13.326;2024-01-30T05:50:49;3.10;99.90
44359;DHT22;30077;52.474;13.326;2024-01-30T06:00:50;3.10;99.90
44359;DHT22;30077;52.474;13.326;2024-01-30T06:10:50;3.10;99.90
44359;DHT22;30077;52.474;13.326;2024-01-30T06:20:51;3.10;99.90
44359;DHT22;30077;52.474;13.326;2024-01-30T06:30:51;3.10;99.90
44359;DHT22;30077;52.474;13.326;2024-01-30T06:40:52;3.10;99.90
44359;DHT22;30077;52.474;13.326;2024-01-30T06:50:53;3.10;99.90
44359;DHT22;30077;52.474;13.326;2024-01-30T07:00:54;3.10;99.90
44359;DHT22;30077;52.474;13.326;2024-01-30T07:10:55;3.10;99.90
44359;DHT22;30077;52.474;13.326;2024-01-30T07:20:56;3.20;99.90
44359;DHT22;30077;52.474;13.326;2024-01-30T07:30:57;3.30;99.90
44359;DHT22;30077;52.474;13.326;2024-01-30T07:40:58;3.50;99.90
44359;DHT22;30077;52.474;13.326;2024-01-30T07:50:58;3.80;99.90
44359;DHT22;30077;52.474;13.326;2024-01-30T08:00:59;4.00;99.90
44359;DHT22;30077;52.474;13.326;2024-01-30T08:11:02;4.20;99.90
44359;DHT22;30077;52.474;13.326;2024-01-30T08:21:03;4.40;99.90
44359;DHT22;30077;52.474;13.326;2024-01-30T08:31:04;4.40;99.90
44359;DHT22;30077;52.474;13.326;2024-01-30T08:41:05;4.70;99.90
44359;DHT22;30077;52.474;13.326;2024-01-30T08:51:05;4.80;99.90
44359;DHT22;30077;52.474;13.326;2024-01-30T09:01:08;5.10;99.90
44359;DHT22;30077;52.474;13.326;2024-01-30T09:11:14;5.50;99.90
44359;DHT22;30077;52.474;13.326;2024-01-30T09:21:15;5.80;99.90
44359;DHT22;30077;52.474;13.326;2024-01-30T09:31:15;6.00;99.90
44359;DHT22;30077;52.474;13.326;2024-01-30T09:41:16;5.90;99.90
44359;DHT22;30077;52.474;13.326;2024-01-30T09:51:20;5.90;99.90
44359;DHT22;30077;52.474;13.326;2024-01-30T10:01:21;6.20;99.90
44359;DHT22;30077;52.474;13.326;2024-01-30T10:11:22;6.80;99.90
44359;DHT22;30077;52.474;13.326;2024-01-30T10:21:23;6.90;99.90
44359;DHT22;30077;52.474;13.326;2024-01-30T10:31:25;7.00;99.90
44359;DHT22;30077;52.474;13.326;2024-01-30T10:41:27;7.30;99.90
44359;DHT22;30077;52.474;13.326;2024-01-30T10:51:28;7.20;99.90
44359;DHT22;30077;52.474;13.326;2024-01-30T11:01:29;7.40;99.90
44359;DHT22;30077;52.474;13.326;2024-01-30T11:11:30;7.60;99.90
44359;DHT22;30077;52.474;13.326;2024-01-30T11:21:31;7.70;99.90
44359;DHT22;30077;52.474;13.326;2024-01-30T11:31:31;7.80;99.90
44359;DHT22;30077;52.474;13.326;2024-01-30T11:41:32;8.00;99.90
44359;DHT22;30077;52.474;13.326;2024-01-30T11:51:33;8.20;99.90
44359;DHT22;30077;52.474;13.326;2024-01-30T12:01:34;8.50;99.90
44359;DHT22;30077;52.474;13.326;2024-01-30T12:11:48;8.90;99.90
44359;DHT22;30077;52.474;13.326;2024-01-30T12:21:59;9.10;99.90
44359;DHT22;30077;52.474;13.326;2024-01-30T12:32:00;8.90;99.90
44359;DHT22;30077;52.474;13.326;2024-01-30T12:42:01;8.90;99.90
44359;DHT22;30077;52.474;13.326;2024-01-30T12:52:02;8.70;99.90
44359;DHT22;30077;52.474;13.326;2024-01-30T13:02:03;8.70;99.90
44359;DHT22;30077;52.474;13.326;2024-01-30T13:12:04;8.80;99.90
44359;DHT22;30077;52.474;13.326;2024-01-30T13:22:05;8.70;99.90
44359;DHT22;30077;52.474;13.326;2024-01-30T13:32:06;8.60;99.90
44359;DHT22;30077;52.474;13.326;2024-01-30T13:42:07;8.70;99.90
44359;DHT22;30077;52.474;13.326;2024-01-30T13:52:08;8.80;99.90
44359;DHT22;30077;52.474;13.326;2024-01-30T14:02:08;8.90;99.90
44359;DHT22;30077;52.474;13.326;2024-01-30T14:12:10;8.70;99.90
44359;DHT22;30077;52.474;13.326;2024-01-30T14:22:11;8.70;99.90
44359;DHT22;30077;52.474;13.326;2024-01-30T14:32:11;8.60;99.90
44359;DHT22;30077;52.474;13.326;2024-01-30T14:42:12;8.70;99.90
44359;DHT22;30077;52.474;13.326;2024-01-30T14:52:13;8.60;99.90
44359;DHT22;30077;52.474;13.326;2024-01-30T15:02:14;8.40;99.90
44359;DHT22;30077;52.474;13.326;2024-01-30T15:12:15;8.30;99.90
44359;DHT22;30077;52.474;13.326;2024-01-30T15:22:15;8.00;99.90
44359;DHT22;30077;52.474;13.326;2024-01-30T15:32:16;7.90;99.90
44359;DHT22;30077;52.474;13.326;2024-01-30T15:42:17;7.80;99.90
44359;DHT22;30077;52.474;13.326;2024-01-30T15:52:17;7.70;99.90
44359;DHT22;30077;52.474;13.326;2024-01-30T16:02:19;7.50;99.90
44359;DHT22;30077;52.474;13.326;2024-01-30T16:12:20;7.30;99.90
44359;DHT22;30077;52.474;13.326;2024-01-30T16:22:22;7.20;99.90
44359;DHT22;30077;52.474;13.326;2024-01-30T16:32:22;7.20;99.90
44359;DHT22;30077;52.474;13.326;2024-01-30T16:42:23;7.30;99.90
44359;DHT22;30077;52.474;13.326;2024-01-30T16:52:24;7.30;99.90
44359;DHT22;30077;52.474;13.326;2024-01-30T17:02:25;7.30;99.90
44359;DHT22;30077;52.474;13.326;2024-01-30T17:12:26;7.30;99.90
44359;DHT22;30077;52.474;13.326;2024-01-30T17:22:28;7.30;99.90
44359;DHT22;30077;52.474;13.326;2024-01-30T17:32:29;7.30;99.90
44359;DHT22;30077;52.474;13.326;2024-01-30T17:42:30;7.40;99.90
44359;DHT22;30077;52.474;13.326;2024-01-30T17:52:31;7.40;99.90
44359;DHT22;30077;52.474;13.326;2024-01-30T18:02:31;7.30;99.90
44359;DHT22;30077;52.474;13.326;2024-01-30T18:12:33;7.30;99.90
44359;DHT22;30077;52.474;13.326;2024-01-30T18:22:36;7.30;99.90
44359;DHT22;30077;52.474;13.326;2024-01-30T18:32:42;7.30;99.90
44359;DHT22;30077;52.474;13.326;2024-01-30T18:42:42;7.40;99.90
44359;DHT22;30077;52.474;13.326;2024-01-30T18:52:43;7.50;99.90
44359;DHT22;30077;52.474;13.326;2024-01-30T19:02:45;7.60;99.90
44359;DHT22;30077;52.474;13.326;2024-01-30T19:12:46;7.70;99.90
44359;DHT22;30077;52.474;13.326;2024-01-30T19:22:47;7.80;99.90
44359;DHT22;30077;52.474;13.326;2024-01-30T19:32:48;7.80;99.90
44359;DHT22;30077;52.474;13.326;2024-01-30T19:42:48;7.90;99.90
44359;DHT22;30077;52.474;13.326;2024-01-30T19:52:51;8.00;99.90
44359;DHT22;30077;52.474;13.326;2024-01-30T20:02:52;7.90;99.90
44359;DHT22;30077;52.474;13.326;2024-01-30T20:12:52;8.00;99.90
44359;DHT22;30077;52.474;13.326;2024-01-30T20:22:53;8.00;99.90
44359;DHT22;30077;52.474;13.326;2024-01-30T20:32:54;7.90;99.90
44359;DHT22;30077;52.474;13.326;2024-01-30T20:42:55;7.90;99.90
44359;DHT22;30077;52.474;13.326;2024-01-30T20:52:55;7.90;99.90
44359;DHT22;30077;52.474;13.326;2024-01-30T21:02:56;7.90;99.90
44359;DHT22;30077;52.474;13.326;2024-01-30T21:12:57;7.80;99.90
44359;DHT22;30077;52.474;13.326;2024-01-30T21:22:58;7.80;99.90
44359;DHT22;30077;52.474;13.326;2024-01-30T21:32:59;7.80;99.90
44359;DHT22;30077;52.474;13.326;2024-01-30T21:43:00;8.00;99.90
44359;DHT22;30077;52.474;13.326;2024-01-30T21:53:01;8.00;99.90
44359;DHT22;30077;52.474;13.326;2024-01-30T22:03:03;7.90;99.90
44359;DHT22;30077;52.474;13.326;2024-01-30T22:13:03;7.80;99.90
44359;DHT22;30077;52.474;13.326;2024-01-30T22:23:04;7.80;99.90
44359;DHT22;30077;52.474;13.326;2024-01-30T22:33:05;7.70;99.90
44359;DHT22;30077;52.474;13.326;2024-01-30T22:43:07;7.50;99.90
44359;DHT22;30077;52.474;13.326;2024-01-30T22:53:11;7.40;99.90
44359;DHT22;30077;52.474;13.326;2024-01-30T23:03:12;7.40;99.90
44359;DHT22;30077;52.474;13.326;2024-01-30T23:13:13;7.50;99.90
44359;DHT22;30077;52.474;13.326;2024-01-30T23:23:14;7.30;99.90
44359;DHT22;30077;52.474;13.326;2024-01-30T23:33:15;7.10;99.90
44359;DHT22;30077;52.474;13.326;2024-01-30T23:43:16;7.00;99.90
44359;DHT22;30077;52.474;13.326;2024-01-30T23:53:17;7.00;99.90
